Terminal Aerodrome Forecast
Issued by NWS

Home | Current Version | Previous Version | Text Only | Print | Product List | Glossary On
Versions: 1 2 3 4 5 6 7 8 9 10 11 12 13 14 15
872
FTUS44 KTSA 262228 AAB
TAFXNA
TAF AMD
KXNA 262228Z 2622/2718 32011KT P6SM VCSH BKN005
     FM270200 29007KT P6SM BKN015
     FM270500 26004KT P6SM BKN025
     FM270900 22003KT P6SM SCT250
      TEMPO 2709/2713 2SM BR OVC010=

USA.gov is the U.S. government's official web portal to all federal, state and local government web resources and services.